WMKI

Details ICAO WMKI (IPH)
Name Ipoh/Sultan Azlan Shaw
Region Malaysia (Peninsular Malaysia)
Timezone Asia/Kuala_Lumpur (UTC+8.0)
Plans Departing 24
Arriving 21
Stats Elevation 130 ft / 40 m (AMSL)
Location 4.567972° 101.092195°
Runways 1
Magnetic Variation 0.117° W
Sunrise 2017-12-15 23:16:46 UTC / 2017-12-16 07:16:46 Local
Sunset 2017-12-16 11:08:16 UTC / 2017-12-16 19:08:16 Local
Advertisement - Login to hide

Runways

ID Width Length Bearing (true) Bearing (mag) Surface Threshold Offset Overrun Length
04 121 ft / 37 m 5,917 ft / 1,804 m 41.21° 41.33° Asphalt 0 ft / 0 m 0 ft / 0 m
22 121 ft / 37 m 5,917 ft / 1,804 m 221.21° 221.33° Asphalt 0 ft / 0 m 0 ft / 0 m

Approach Navaids

Runway Type Ident Frequency Range Bearing (true) Bearing (mag) Slope Elevation
04 Localiser IPO 110.50 MHz 18 nm / 33 km 41.21° 41.33° - 130 ft / 40 m (AMSL)
04 Glidescope IPO 110.50 MHz 10 nm / 19 km 41.21° 41.33° 3.00° 130 ft / 40 m (AMSL)
04 DME IPO 110.50 MHz 18 nm / 33 km - - - 130 ft / 40 m (AMSL)

Map

Weather


0- 5 10 15 20 25 30 35+ Temperature / ° C

Clouds and Precipitation
Forecast for 2017-12-16 06:00 UTC. Updated 13 minutes ago

Ground ~20,000 ft ~40,000 ft Winds

METAR

WMKI 160100Z 05006KT 360V110 9999 FEW017CB BKN290 26/22 Q1012

TAF

Not found

Frequencies

Tower 122.10 MHz IPOH TWR
Tower 121.60 MHz IPOH TWR
Warning: Do not use this data for real-world aviation or navigation. No guarantee of current accuracy is given.